createdAt,value
2018-12-05T00:00:50.365Z,993.557
2018-12-05T00:02:50.217Z,993.589
2018-12-05T00:04:50.343Z,993.618
2018-12-05T00:06:50.341Z,993.649
2018-12-05T00:08:50.242Z,993.701
2018-12-05T00:10:50.064Z,993.745
2018-12-05T00:12:49.814Z,993.773
2018-12-05T00:14:49.598Z,993.784
2018-12-05T00:16:49.622Z,993.791
2018-12-05T00:18:50.472Z,993.806
2018-12-05T00:20:50.238Z,993.798
2018-12-05T00:22:50.148Z,993.785
2018-12-05T00:24:49.969Z,993.758
2018-12-05T00:26:50.056Z,993.751
2018-12-05T00:28:49.941Z,993.744
2018-12-05T00:30:49.858Z,993.776
2018-12-05T00:32:49.676Z,993.776
2018-12-05T00:34:49.827Z,993.843
2018-12-05T00:36:49.886Z,993.844
2018-12-05T00:38:49.787Z,993.832
2018-12-05T00:40:50.591Z,993.806
2018-12-05T00:42:50.457Z,993.822
2018-12-05T00:44:50.261Z,993.840
2018-12-05T00:46:50.258Z,993.883
2018-12-05T00:48:50.091Z,993.878
2018-12-05T00:50:49.879Z,993.881
2018-12-05T00:52:49.853Z,993.869
2018-12-05T00:54:49.679Z,993.854
2018-12-05T00:56:49.759Z,993.862
2018-12-05T00:58:49.597Z,993.870
2018-12-05T01:00:50.491Z,993.866
2018-12-05T01:02:50.309Z,993.868
2018-12-05T01:04:50.516Z,993.880
2018-12-05T01:06:50.523Z,993.897
2018-12-05T01:08:50.291Z,993.897
2018-12-05T01:10:50.104Z,993.895
2018-12-05T01:12:49.932Z,993.904
2018-12-05T01:14:49.637Z,993.960
2018-12-05T01:16:49.647Z,993.983
2018-12-05T01:18:50.463Z,994.050
2018-12-05T01:20:50.298Z,994.087
2018-12-05T01:22:50.093Z,994.077
2018-12-05T01:24:49.936Z,994.029
2018-12-05T01:26:49.951Z,994.031
2018-12-05T01:28:49.775Z,994.039
2018-12-05T01:30:49.629Z,994.067
2018-12-05T01:32:50.437Z,994.062
2018-12-05T01:34:49.618Z,994.069
2018-12-05T01:36:49.718Z,994.090
2018-12-05T01:38:49.615Z,994.106
2018-12-05T01:40:50.511Z,994.082
2018-12-05T01:42:50.313Z,994.082
2018-12-05T01:44:50.174Z,994.009
2018-12-05T01:46:50.178Z,993.990
2018-12-05T01:48:49.984Z,993.964
2018-12-05T01:50:49.877Z,993.963
2018-12-05T01:52:49.670Z,993.919
2018-12-05T01:54:50.499Z,993.890
2018-12-05T01:56:49.622Z,993.882
2018-12-05T01:58:50.387Z,993.876
2018-12-05T02:00:50.273Z,993.852
2018-12-05T02:02:50.058Z,993.820
2018-12-05T02:04:50.245Z,993.822
2018-12-05T02:06:50.295Z,993.820
2018-12-05T02:08:50.076Z,993.821
2018-12-05T02:10:49.857Z,993.815
2018-12-05T02:12:49.833Z,993.814
2018-12-05T02:14:50.071Z,993.840
2018-12-05T02:16:50.150Z,993.829
2018-12-05T02:18:50.046Z,993.822
2018-12-05T02:20:49.991Z,993.818
2018-12-05T02:22:49.896Z,993.815
2018-12-05T02:24:49.791Z,993.783
2018-12-05T02:26:49.963Z,993.774
2018-12-05T02:28:50.026Z,993.770
2018-12-05T02:30:49.873Z,993.775
2018-12-05T02:32:49.834Z,993.763
2018-12-05T02:34:50.136Z,993.769
2018-12-05T02:36:50.179Z,993.775
2018-12-05T02:38:49.939Z,993.776
2018-12-05T02:40:49.805Z,993.797
2018-12-05T02:42:49.668Z,993.804
2018-12-05T02:44:50.451Z,993.824
2018-12-05T02:46:50.527Z,993.821
2018-12-05T02:48:50.358Z,993.814
2018-12-05T02:50:50.191Z,993.792
2018-12-05T02:52:49.989Z,993.792
2018-12-05T02:54:49.862Z,993.788
2018-12-05T02:56:49.957Z,993.792
2018-12-05T02:58:49.855Z,993.765
2018-12-05T03:00:49.667Z,993.736
2018-12-05T03:02:50.557Z,993.705
2018-12-05T03:04:49.750Z,993.648
2018-12-05T03:06:49.894Z,993.645
2018-12-05T03:08:50.452Z,993.614
2018-12-05T03:10:50.260Z,993.591
2018-12-05T03:12:50.030Z,993.579
2018-12-05T03:14:49.853Z,993.528
2018-12-05T03:16:49.943Z,993.542
2018-12-05T03:18:49.790Z,993.562
2018-12-05T03:20:50.605Z,993.558
2018-12-05T03:22:50.381Z,993.558
2018-12-05T03:24:50.233Z,993.511
2018-12-05T03:26:50.298Z,993.501
2018-12-05T03:28:50.118Z,993.526
2018-12-05T03:30:49.963Z,993.579
2018-12-05T03:32:49.823Z,993.559
2018-12-05T03:34:50.110Z,993.524
2018-12-05T03:36:50.125Z,993.524
2018-12-05T03:38:49.990Z,993.447
2018-12-05T03:40:49.835Z,993.447
2018-12-05T03:42:49.688Z,993.369
2018-12-05T03:44:50.475Z,993.366
2018-12-05T03:46:50.446Z,993.362
2018-12-05T03:48:50.317Z,993.335
2018-12-05T03:50:50.119Z,993.285
2018-12-05T03:52:49.928Z,993.285
2018-12-05T03:54:49.827Z,993.316
2018-12-05T03:56:49.831Z,993.346
2018-12-05T03:58:49.728Z,993.375
2018-12-05T04:00:49.642Z,993.417
2018-12-05T04:02:50.413Z,993.447
2018-12-05T04:04:50.488Z,993.539
2018-12-05T04:06:50.439Z,993.564
2018-12-05T04:08:50.252Z,993.628
2018-12-05T04:10:50.057Z,993.642
2018-12-05T04:12:49.868Z,993.627
2018-12-05T04:14:49.749Z,993.655
2018-12-05T04:16:49.799Z,993.666
2018-12-05T04:18:49.640Z,993.666
2018-12-05T04:20:50.508Z,993.720
2018-12-05T04:22:50.315Z,993.750
2018-12-05T04:24:50.179Z,993.792
2018-12-05T04:26:50.238Z,993.851
2018-12-05T04:28:50.106Z,993.896
2018-12-05T04:30:49.914Z,993.985
2018-12-05T04:32:49.786Z,994.000
2018-12-05T04:34:50.053Z,994.025
2018-12-05T04:36:50.054Z,994.038
2018-12-05T04:38:49.863Z,994.032
2018-12-05T04:40:49.734Z,994.037
2018-12-05T04:42:49.722Z,994.041
2018-12-05T04:44:50.602Z,994.050
2018-12-05T04:46:49.648Z,994.027
2018-12-05T04:48:50.496Z,994.035
2018-12-05T04:50:50.428Z,994.064
2018-12-05T04:52:50.247Z,994.058
2018-12-05T04:54:50.034Z,994.029
2018-12-05T04:56:50.025Z,994.026
2018-12-05T04:58:49.851Z,994.041
2018-12-05T05:00:49.722Z,994.040
2018-12-05T05:02:49.643Z,994.031
2018-12-05T05:04:49.759Z,994.023
2018-12-05T05:06:49.902Z,994.014
2018-12-05T05:08:49.789Z,993.983
2018-12-05T05:10:49.636Z,993.968
2018-12-05T05:12:50.478Z,993.975
2018-12-05T05:14:50.273Z,993.953
2018-12-05T05:16:50.332Z,993.930
2018-12-05T05:18:50.222Z,993.916
2018-12-05T05:20:50.033Z,993.909
2018-12-05T05:22:49.872Z,993.911
2018-12-05T05:24:49.645Z,993.921
2018-12-05T05:26:50.452Z,993.954
2018-12-05T05:28:50.246Z,994.000
2018-12-05T05:30:50.091Z,994.057
2018-12-05T05:32:49.933Z,994.077
2018-12-05T05:34:50.189Z,994.058
2018-12-05T05:36:50.299Z,994.047
2018-12-05T05:38:50.093Z,994.028
2018-12-05T05:40:49.899Z,994.037
2018-12-05T05:42:49.737Z,994.041
2018-12-05T05:44:50.585Z,994.056
2018-12-05T05:46:49.791Z,994.040
2018-12-05T05:48:49.608Z,994.030
2018-12-05T05:50:50.432Z,994.018
2018-12-05T05:52:50.304Z,993.995
2018-12-05T05:54:50.120Z,993.970
2018-12-05T05:56:50.177Z,993.959
2018-12-05T05:58:50.027Z,993.924
2018-12-05T06:00:49.867Z,993.922
2018-12-05T06:02:49.732Z,993.922
2018-12-05T06:04:50.125Z,993.932
2018-12-05T06:06:50.129Z,993.932
2018-12-05T06:08:50.020Z,993.938
2018-12-05T06:10:49.841Z,993.938
2018-12-05T06:12:49.668Z,993.941
2018-12-05T06:14:50.405Z,993.925
2018-12-05T06:16:50.507Z,993.939
2018-12-05T06:18:50.411Z,993.941
2018-12-05T06:20:50.334Z,993.932
2018-12-05T06:22:50.220Z,993.935
2018-12-05T06:24:50.042Z,993.937
2018-12-05T06:26:50.050Z,993.972
2018-12-05T06:28:49.840Z,993.980
2018-12-05T06:30:49.668Z,993.969
2018-12-05T06:32:50.476Z,993.952
2018-12-05T06:34:49.642Z,993.943
2018-12-05T06:36:49.786Z,993.921
2018-12-05T06:38:49.615Z,993.931
2018-12-05T06:40:50.510Z,993.963
2018-12-05T06:42:50.323Z,993.981
2018-12-05T06:44:50.183Z,993.989
2018-12-05T06:46:50.108Z,994.006
2018-12-05T06:48:49.868Z,994.017
2018-12-05T06:50:49.719Z,994.029
2018-12-05T06:52:50.529Z,994.061
2018-12-05T06:54:50.370Z,994.068
2018-12-05T06:56:50.468Z,994.081
2018-12-05T06:58:50.261Z,994.040
2018-12-05T07:00:50.077Z,994.023
2018-12-05T07:02:49.996Z,994.014
2018-12-05T07:04:50.107Z,994.001
2018-12-05T07:06:50.195Z,993.995
2018-12-05T07:08:50.037Z,993.998
2018-12-05T07:10:49.837Z,994.016
2018-12-05T07:12:49.622Z,994.058
2018-12-05T07:14:50.494Z,994.087
2018-12-05T07:16:50.464Z,994.108
2018-12-05T07:18:50.231Z,994.134
2018-12-05T07:20:50.090Z,994.160
2018-12-05T07:22:49.890Z,994.213
2018-12-05T07:24:49.783Z,994.236
2018-12-05T07:26:49.764Z,994.234
2018-12-05T07:28:49.606Z,994.211
2018-12-05T07:30:50.395Z,994.175
2018-12-05T07:32:50.178Z,994.148
2018-12-05T07:34:50.373Z,994.144
2018-12-05T07:36:50.358Z,994.130
2018-12-05T07:38:50.146Z,994.129
2018-12-05T07:40:49.998Z,994.125
2018-12-05T07:42:49.738Z,994.156
2018-12-05T07:44:50.633Z,994.202
2018-12-05T07:46:50.605Z,994.202
2018-12-05T07:48:50.428Z,994.210
2018-12-05T07:50:50.262Z,994.202
2018-12-05T07:52:50.101Z,994.210
2018-12-05T07:54:49.894Z,994.210
2018-12-05T07:56:49.879Z,994.313
2018-12-05T07:58:49.768Z,994.421
2018-12-05T08:00:49.635Z,994.485
2018-12-05T08:02:50.461Z,994.495
2018-12-05T08:04:49.718Z,994.486
2018-12-05T08:06:49.733Z,994.437
2018-12-05T08:08:50.615Z,994.417
2018-12-05T08:10:50.452Z,994.391
2018-12-05T08:12:50.254Z,994.383
2018-12-05T08:14:50.099Z,994.386
2018-12-05T08:16:50.270Z,994.392
2018-12-05T08:18:50.086Z,994.410
2018-12-05T08:20:49.883Z,994.417
2018-12-05T08:22:49.654Z,994.403
2018-12-05T08:24:50.427Z,994.377
2018-12-05T08:26:50.480Z,994.339
2018-12-05T08:28:50.246Z,994.347
2018-12-05T08:30:50.089Z,994.372
2018-12-05T08:32:50.005Z,994.345
2018-12-05T08:34:50.174Z,994.320
2018-12-05T08:36:50.289Z,994.284
2018-12-05T08:38:50.183Z,994.289
2018-12-05T08:40:49.983Z,994.282
2018-12-05T08:42:49.752Z,994.280
2018-12-05T08:44:49.624Z,994.301
2018-12-05T08:46:50.604Z,994.300
2018-12-05T08:48:52.249Z,994.275
2018-12-05T08:50:50.009Z,994.263
2018-12-05T08:52:49.834Z,994.266
2018-12-05T08:54:49.624Z,994.279
2018-12-05T08:56:49.679Z,994.278
2018-12-05T08:58:50.454Z,994.247
2018-12-05T09:00:50.221Z,994.206
2018-12-05T09:02:50.035Z,994.158
2018-12-05T09:04:50.034Z,994.153
2018-12-05T09:06:49.942Z,994.171
2018-12-05T09:08:49.748Z,994.179
2018-12-05T09:10:49.745Z,994.241
2018-12-05T09:12:49.785Z,994.286
2018-12-05T09:14:49.726Z,994.305
2018-12-05T09:16:49.844Z,994.318
2018-12-05T09:18:49.874Z,994.346
2018-12-05T09:20:49.907Z,994.375
2018-12-05T09:22:49.898Z,994.374
2018-12-05T09:24:49.880Z,994.375
2018-12-05T09:26:50.117Z,994.368
2018-12-05T09:28:57.519Z,994.377
2018-12-05T09:30:50.440Z,994.360
2018-12-05T09:32:50.469Z,994.365
2018-12-05T09:34:49.724Z,994.331
2018-12-05T09:36:49.999Z,994.331
2018-12-05T09:38:50.041Z,994.332
2018-12-05T09:40:49.994Z,994.342
2018-12-05T09:42:50.005Z,994.349
2018-12-05T09:44:50.022Z,994.341
2018-12-05T09:46:50.050Z,994.334
2018-12-05T09:48:50.022Z,994.308
2018-12-05T09:50:50.004Z,994.308
2018-12-05T09:52:50.025Z,994.278
2018-12-05T09:54:49.988Z,994.228
2018-12-05T09:56:50.150Z,994.209
2018-12-05T09:58:50.154Z,994.153
2018-12-05T10:00:50.155Z,994.118
2018-12-05T10:02:50.162Z,994.056
2018-12-05T10:04:49.657Z,994.024
2018-12-05T10:06:49.935Z,994.009
2018-12-05T10:08:49.912Z,993.990
2018-12-05T10:10:49.924Z,993.985
2018-12-05T10:12:49.917Z,994.009
2018-12-05T10:14:49.901Z,994.010
2018-12-05T10:16:50.098Z,993.994
2018-12-05T10:18:50.034Z,993.968
2018-12-05T10:20:56.359Z,993.915
2018-12-05T10:22:50.412Z,993.907
2018-12-05T10:24:50.304Z,993.908
2018-12-05T10:26:49.667Z,993.922
2018-12-05T10:28:50.584Z,993.915
2018-12-05T10:30:49.749Z,993.913
2018-12-05T10:32:49.851Z,993.886
2018-12-05T10:34:50.113Z,993.829
2018-12-05T10:36:50.319Z,993.762
2018-12-05T10:38:50.291Z,993.736
2018-12-05T10:40:50.264Z,993.683
2018-12-05T10:42:50.306Z,993.649
2018-12-05T10:44:50.363Z,993.605
2018-12-05T10:46:50.499Z,993.578
2018-12-05T10:48:50.560Z,993.552
2018-12-05T10:50:49.644Z,993.509
2018-12-05T10:52:49.713Z,993.482
2018-12-05T10:54:49.810Z,993.496
2018-12-05T10:56:50.075Z,993.493
2018-12-05T10:58:50.099Z,993.495
2018-12-05T11:00:50.092Z,993.444
2018-12-05T11:02:50.089Z,993.422
2018-12-05T11:04:50.355Z,993.422
2018-12-05T11:06:50.545Z,993.426
2018-12-05T11:08:49.608Z,993.400
2018-12-05T11:10:49.707Z,993.374
2018-12-05T11:12:49.706Z,993.365
2018-12-05T11:14:49.848Z,993.340
2018-12-05T11:16:49.967Z,993.332
2018-12-05T11:18:49.956Z,993.315
2018-12-05T11:20:49.948Z,993.298
2018-12-05T11:22:49.987Z,993.242
2018-12-05T11:24:49.993Z,993.197
2018-12-05T11:26:50.253Z,993.144
2018-12-05T11:28:50.208Z,993.110
2018-12-05T11:30:50.188Z,993.079
2018-12-05T11:32:50.319Z,993.044
2018-12-05T11:34:49.728Z,992.995
2018-12-05T11:36:49.919Z,992.995
2018-12-05T11:38:49.908Z,992.908
2018-12-05T11:40:49.828Z,992.849
2018-12-05T11:42:49.929Z,992.803
2018-12-05T11:44:49.951Z,992.756
2018-12-05T11:46:50.203Z,992.746
2018-12-05T11:48:50.163Z,992.725
2018-12-05T11:50:50.066Z,992.718
2018-12-05T11:52:49.989Z,992.725
2018-12-05T11:54:49.891Z,992.693
2018-12-05T11:56:50.041Z,992.651
2018-12-05T11:58:49.968Z,992.609
2018-12-05T12:00:49.972Z,992.588
2018-12-05T12:02:49.904Z,992.567
2018-12-05T12:04:50.172Z,992.570
2018-12-05T12:06:50.303Z,992.537
2018-12-05T12:08:50.329Z,992.496
2018-12-05T12:10:50.249Z,992.464
2018-12-05T12:12:50.235Z,992.463
2018-12-05T12:14:50.130Z,992.437
2018-12-05T12:16:50.281Z,992.397
2018-12-05T12:18:50.214Z,992.356
2018-12-05T12:20:50.217Z,992.342
2018-12-05T12:22:50.141Z,992.334
2018-12-05T12:24:50.058Z,992.333
2018-12-05T12:26:50.116Z,992.337
2018-12-05T12:28:50.065Z,992.336
2018-12-05T12:30:50.027Z,992.336
2018-12-05T12:32:50.016Z,992.319
2018-12-05T12:34:50.315Z,992.298
2018-12-05T12:36:50.566Z,992.314
2018-12-05T12:38:50.571Z,992.322
2018-12-05T12:40:49.626Z,992.330
2018-12-05T12:42:50.590Z,992.326
2018-12-05T12:44:49.621Z,992.324
2018-12-05T12:46:49.914Z,992.307
2018-12-05T12:48:49.794Z,992.273
2018-12-05T12:50:49.839Z,992.191
2018-12-05T12:52:49.846Z,992.162
2018-12-05T12:54:49.807Z,992.147
2018-12-05T12:56:50.019Z,992.149
2018-12-05T12:58:50.002Z,992.137
2018-12-05T13:00:50.004Z,992.140
2018-12-05T13:02:49.972Z,992.090
2018-12-05T13:04:50.246Z,992.055
2018-12-05T13:06:50.407Z,991.999
2018-12-05T13:08:50.387Z,991.989
2018-12-05T13:10:50.419Z,991.967
2018-12-05T13:12:50.391Z,991.924
2018-12-05T13:14:50.423Z,991.873
2018-12-05T13:16:49.610Z,991.837
2018-12-05T13:18:49.689Z,991.837
2018-12-05T13:20:49.801Z,991.727
2018-12-05T13:22:49.892Z,991.688
2018-12-05T13:24:49.858Z,991.657
2018-12-05T13:26:50.040Z,991.630
2018-12-05T13:28:50.129Z,991.619
2018-12-05T13:30:50.115Z,991.607
2018-12-05T13:32:50.130Z,991.582
2018-12-05T13:34:50.524Z,991.550
2018-12-05T13:36:49.852Z,991.550
2018-12-05T13:38:49.838Z,991.578
2018-12-05T13:40:49.923Z,991.583
2018-12-05T13:42:49.875Z,991.594
2018-12-05T13:44:49.870Z,991.579
2018-12-05T13:46:50.015Z,991.557
2018-12-05T13:48:49.981Z,991.504
2018-12-05T13:50:49.975Z,991.508
2018-12-05T13:52:49.940Z,991.519
2018-12-05T13:54:50.102Z,991.499
2018-12-05T13:56:49.614Z,991.414
2018-12-05T13:58:49.773Z,991.360
2018-12-05T14:00:50.247Z,991.281
2018-12-05T14:02:50.235Z,991.262
2018-12-05T14:04:50.048Z,991.252
2018-12-05T14:06:50.243Z,991.226
2018-12-05T14:08:50.263Z,991.198
2018-12-05T14:10:50.229Z,991.211
2018-12-05T14:12:50.335Z,991.217
2018-12-05T14:14:50.369Z,991.257
2018-12-05T14:16:49.624Z,991.248
2018-12-05T14:18:49.605Z,991.236
2018-12-05T14:20:50.584Z,991.219
2018-12-05T14:22:49.648Z,991.123
2018-12-05T14:24:49.615Z,991.068
2018-12-05T14:26:49.941Z,991.055
2018-12-05T14:28:50.009Z,991.028
2018-12-05T14:30:50.018Z,991.013
2018-12-05T14:32:50.035Z,990.993
2018-12-05T14:34:50.300Z,991.005
2018-12-05T14:36:50.568Z,991.005
2018-12-05T14:38:50.625Z,991.022
2018-12-05T14:40:49.654Z,991.020
2018-12-05T14:42:50.601Z,991.023
2018-12-05T14:44:49.716Z,991.026
2018-12-05T14:46:49.941Z,990.991
2018-12-05T14:48:49.913Z,990.957
2018-12-05T14:50:49.996Z,990.948
2018-12-05T14:52:50.006Z,990.933
2018-12-05T14:54:50.009Z,990.920
2018-12-05T14:56:50.145Z,990.912
2018-12-05T14:58:50.119Z,990.917
2018-12-05T15:00:50.385Z,990.951
2018-12-05T15:02:50.374Z,990.974
2018-12-05T15:04:49.741Z,990.957
2018-12-05T15:06:50.007Z,990.940
2018-12-05T15:08:50.071Z,990.898
2018-12-05T15:10:50.030Z,990.877
2018-12-05T15:12:50.000Z,990.900
2018-12-05T15:14:49.993Z,990.927
2018-12-05T15:16:50.151Z,990.962
2018-12-05T15:18:50.114Z,990.974
2018-12-05T15:20:50.064Z,990.961
2018-12-05T15:22:50.013Z,990.953
2018-12-05T15:24:50.031Z,990.930
2018-12-05T15:26:50.245Z,990.922
2018-12-05T15:28:50.224Z,990.920
2018-12-05T15:30:50.195Z,990.913
2018-12-05T15:32:50.216Z,990.904
2018-12-05T15:34:52.434Z,990.902
2018-12-05T15:36:49.673Z,990.893
2018-12-05T15:38:49.639Z,990.876
2018-12-05T15:40:49.614Z,990.848
2018-12-05T15:42:50.538Z,990.787
2018-12-05T15:44:50.575Z,990.775
2018-12-05T15:46:49.832Z,990.741
2018-12-05T15:48:49.850Z,990.739
2018-12-05T15:50:49.842Z,990.749
2018-12-05T15:52:49.891Z,990.763
2018-12-05T15:54:49.872Z,990.741
2018-12-05T15:56:50.053Z,990.712
2018-12-05T15:58:50.033Z,990.599
2018-12-05T16:00:50.010Z,990.547
2018-12-05T16:02:50.023Z,990.509
2018-12-05T16:04:50.292Z,990.502
2018-12-05T16:06:50.506Z,990.515
2018-12-05T16:08:50.462Z,990.544
2018-12-05T16:10:50.487Z,990.603
2018-12-05T16:12:49.684Z,990.551
2018-12-05T16:14:49.642Z,990.515
2018-12-05T16:16:49.953Z,990.491
2018-12-05T16:18:49.965Z,990.466
2018-12-05T16:20:49.912Z,990.454
2018-12-05T16:22:49.870Z,990.418
2018-12-05T16:24:49.834Z,990.346
2018-12-05T16:26:49.623Z,990.334
2018-12-05T16:28:49.622Z,990.345
2018-12-05T16:30:49.689Z,990.342
2018-12-05T16:32:49.610Z,990.312
2018-12-05T16:34:50.009Z,990.275
2018-12-05T16:36:50.318Z,990.241
2018-12-05T16:38:50.311Z,990.216
2018-12-05T16:40:50.257Z,990.175
2018-12-05T16:42:50.209Z,990.158
2018-12-05T16:44:50.172Z,990.155
2018-12-05T16:46:50.333Z,990.171
2018-12-05T16:48:50.397Z,990.199
2018-12-05T16:50:50.435Z,990.209
2018-12-05T16:52:50.560Z,990.199
2018-12-05T16:54:50.663Z,990.179
2018-12-05T16:56:49.932Z,990.156
2018-12-05T16:58:49.902Z,990.149
2018-12-05T17:00:49.839Z,990.123
2018-12-05T17:02:49.816Z,990.082
2018-12-05T17:04:50.113Z,990.067
2018-12-05T17:06:50.229Z,990.021
2018-12-05T17:08:50.277Z,990.022
2018-12-05T17:10:50.254Z,990.037
2018-12-05T17:12:50.346Z,990.058
2018-12-05T17:14:50.334Z,990.091
2018-12-05T17:16:50.606Z,990.108
2018-12-05T17:18:49.628Z,990.124
2018-12-05T17:20:50.587Z,990.155
2018-12-05T17:22:49.590Z,990.173
2018-12-05T17:24:49.711Z,990.178
2018-12-05T17:26:49.992Z,990.175
2018-12-05T17:28:49.988Z,990.149
2018-12-05T17:30:49.981Z,990.132
2018-12-05T17:32:49.939Z,990.127
2018-12-05T17:34:50.197Z,990.075
2018-12-05T17:36:50.486Z,990.043
2018-12-05T17:38:50.511Z,989.970
2018-12-05T17:40:50.445Z,989.969
2018-12-05T17:42:50.436Z,989.981
2018-12-05T17:44:50.478Z,989.969
2018-12-05T17:46:49.752Z,989.975
2018-12-05T17:48:49.733Z,989.953
2018-12-05T17:50:49.826Z,989.936
2018-12-05T17:52:49.741Z,989.864
2018-12-05T17:54:49.765Z,989.864
2018-12-05T17:56:49.956Z,989.759
2018-12-05T17:58:49.960Z,989.730
2018-12-05T18:00:49.951Z,989.692
2018-12-05T18:02:49.927Z,989.692
2018-12-05T18:04:50.310Z,989.696
2018-12-05T18:06:50.499Z,989.696
2018-12-05T18:08:50.487Z,989.650
2018-12-05T18:10:50.400Z,989.628
2018-12-05T18:12:50.445Z,989.613
2018-12-05T18:14:50.404Z,989.607
2018-12-05T18:16:49.723Z,989.608
2018-12-05T18:18:49.783Z,989.590
2018-12-05T18:20:49.786Z,989.554
2018-12-05T18:22:49.838Z,989.523
2018-12-05T18:24:49.854Z,989.508
2018-12-05T18:26:50.014Z,989.476
2018-12-05T18:28:49.969Z,989.459
2018-12-05T18:30:49.939Z,989.438
2018-12-05T18:32:50.017Z,989.408
2018-12-05T18:34:50.230Z,989.394
2018-12-05T18:36:50.397Z,989.385
2018-12-05T18:38:50.282Z,989.351
2018-12-05T18:40:50.496Z,989.344
2018-12-05T18:42:50.470Z,989.316
2018-12-05T18:44:50.560Z,989.274
2018-12-05T18:46:49.794Z,989.225
2018-12-05T18:48:49.783Z,989.190
2018-12-05T18:50:49.796Z,989.159
2018-12-05T18:52:49.765Z,989.106
2018-12-05T18:54:49.791Z,989.069
2018-12-05T18:56:50.085Z,989.067
2018-12-05T18:58:50.090Z,989.059
2018-12-05T19:00:50.120Z,989.064
2018-12-05T19:02:50.193Z,989.062
2018-12-05T19:04:50.423Z,989.030
2018-12-05T19:06:50.595Z,989.002
2018-12-05T19:08:50.588Z,988.989
2018-12-05T19:10:49.630Z,988.937
2018-12-05T19:12:49.687Z,988.906
2018-12-05T19:14:49.746Z,988.905
2018-12-05T19:16:50.095Z,988.909
2018-12-05T19:18:50.089Z,988.909
2018-12-05T19:20:50.112Z,988.848
2018-12-05T19:22:50.082Z,988.818
2018-12-05T19:24:50.088Z,988.776
2018-12-05T19:26:50.308Z,988.757
2018-12-05T19:28:50.378Z,988.737
2018-12-05T19:30:50.378Z,988.708
2018-12-05T19:32:50.450Z,988.671
2018-12-05T19:34:50.090Z,988.679
2018-12-05T19:36:50.256Z,988.618
2018-12-05T19:38:50.221Z,988.612
2018-12-05T19:40:50.235Z,988.595
2018-12-05T19:42:50.216Z,988.574
2018-12-05T19:44:50.164Z,988.519
2018-12-05T19:46:50.364Z,988.483
2018-12-05T19:48:50.380Z,988.453
2018-12-05T19:50:50.341Z,988.411
2018-12-05T19:52:50.346Z,988.372
2018-12-05T19:54:50.331Z,988.353
2018-12-05T19:56:50.587Z,988.344
2018-12-05T19:58:49.628Z,988.349
2018-12-05T20:00:50.560Z,988.364
2018-12-05T20:02:50.576Z,988.359
2018-12-05T20:04:49.872Z,988.317
2018-12-05T20:06:50.084Z,988.297
2018-12-05T20:08:50.055Z,988.291
2018-12-05T20:10:50.054Z,988.272
2018-12-05T20:12:50.074Z,988.247
2018-12-05T20:14:50.067Z,988.231
2018-12-05T20:16:50.218Z,988.241
2018-12-05T20:18:50.221Z,988.240
2018-12-05T20:20:50.145Z,988.245
2018-12-05T20:22:50.134Z,988.245
2018-12-05T20:24:50.117Z,988.215
2018-12-05T20:26:50.318Z,988.195
2018-12-05T20:28:50.332Z,988.198
2018-12-05T20:30:50.287Z,988.190
2018-12-05T20:32:50.463Z,988.210
2018-12-05T20:34:49.883Z,988.210
2018-12-05T20:36:50.095Z,988.168
2018-12-05T20:38:50.081Z,988.139
2018-12-05T20:40:50.170Z,988.127
2018-12-05T20:42:50.254Z,988.142
2018-12-05T20:44:50.246Z,988.116
2018-12-05T20:46:50.413Z,988.062
2018-12-05T20:48:50.366Z,988.014
2018-12-05T20:50:50.382Z,987.983
2018-12-05T20:52:50.326Z,987.935
2018-12-05T20:54:50.307Z,987.884
2018-12-05T20:56:49.681Z,987.863
2018-12-05T20:58:49.677Z,987.754
2018-12-05T21:00:49.733Z,987.702
2018-12-05T21:02:49.752Z,987.663
2018-12-05T21:04:50.092Z,987.627
2018-12-05T21:06:50.209Z,987.571
2018-12-05T21:08:50.269Z,987.532
2018-12-05T21:10:50.227Z,987.492
2018-12-05T21:12:50.264Z,987.490
2018-12-05T21:14:50.259Z,987.484
2018-12-05T21:16:50.430Z,987.444
2018-12-05T21:18:50.544Z,987.408
2018-12-05T21:20:50.568Z,987.358
2018-12-05T21:22:50.539Z,987.305
2018-12-05T21:24:50.571Z,987.212
2018-12-05T21:26:49.832Z,987.179
2018-12-05T21:28:49.856Z,987.130
2018-12-05T21:30:49.872Z,987.144
2018-12-05T21:32:49.908Z,987.158
2018-12-05T21:34:50.201Z,987.215
2018-12-05T21:36:50.419Z,987.272
2018-12-05T21:38:50.437Z,987.279
2018-12-05T21:40:50.422Z,987.304
2018-12-05T21:42:50.415Z,987.299
2018-12-05T21:44:50.431Z,987.285
2018-12-05T21:46:49.631Z,987.220
2018-12-05T21:48:49.633Z,987.207
2018-12-05T21:50:49.727Z,987.138
2018-12-05T21:52:49.713Z,987.115
2018-12-05T21:54:49.812Z,987.097
2018-12-05T21:56:50.025Z,987.046
2018-12-05T21:58:50.124Z,986.962
2018-12-05T22:00:50.193Z,986.825
2018-12-05T22:02:50.247Z,986.761
2018-12-05T22:04:50.610Z,986.758
2018-12-05T22:06:49.856Z,986.776
2018-12-05T22:08:49.823Z,986.784
2018-12-05T22:10:49.844Z,986.799
2018-12-05T22:12:49.887Z,986.809
2018-12-05T22:14:49.915Z,986.817
2018-12-05T22:16:50.167Z,986.836
2018-12-05T22:18:50.127Z,986.846
2018-12-05T22:20:50.136Z,986.868
2018-12-05T22:22:50.121Z,986.869
2018-12-05T22:24:50.169Z,986.827
2018-12-05T22:26:50.285Z,986.823
2018-12-05T22:28:50.190Z,986.792
2018-12-05T22:30:50.253Z,986.831
2018-12-05T22:32:50.183Z,986.868
2018-12-05T22:34:50.597Z,986.868
2018-12-05T22:36:49.855Z,986.886
2018-12-05T22:38:49.901Z,986.897
2018-12-05T22:40:49.964Z,986.897
2018-12-05T22:42:50.141Z,986.872
2018-12-05T22:44:50.157Z,986.860
2018-12-05T22:46:50.281Z,986.820
2018-12-05T22:48:50.296Z,986.810
2018-12-05T22:50:50.296Z,986.798
2018-12-05T22:52:50.322Z,986.793
2018-12-05T22:54:50.301Z,986.767
2018-12-05T22:56:50.407Z,986.771
2018-12-05T22:58:50.459Z,986.759
2018-12-05T23:00:50.542Z,986.778
2018-12-05T23:02:50.501Z,986.778
2018-12-05T23:04:49.799Z,986.734
2018-12-05T23:06:50.098Z,986.701
2018-12-05T23:08:50.096Z,986.658
2018-12-05T23:10:50.103Z,986.618
2018-12-05T23:12:50.166Z,986.594
2018-12-05T23:14:50.155Z,986.533
2018-12-05T23:16:50.292Z,986.513
2018-12-05T23:18:50.330Z,986.492
2018-12-05T23:20:50.373Z,986.449
2018-12-05T23:22:50.345Z,986.418
2018-12-05T23:24:50.311Z,986.409
2018-12-05T23:26:50.537Z,986.401
2018-12-05T23:28:50.580Z,986.403
2018-12-05T23:30:50.568Z,986.416
2018-12-05T23:32:49.691Z,986.427
2018-12-05T23:34:49.987Z,986.400
2018-12-05T23:36:50.228Z,986.400
2018-12-05T23:38:50.332Z,986.374
2018-12-05T23:40:50.282Z,986.311
2018-12-05T23:42:50.270Z,986.303
2018-12-05T23:44:50.189Z,986.381
2018-12-05T23:46:50.390Z,986.431
2018-12-05T23:48:50.352Z,986.431
2018-12-05T23:50:50.351Z,986.445
2018-12-05T23:52:50.353Z,986.391
2018-12-05T23:54:50.254Z,986.341
2018-12-05T23:56:50.452Z,986.311
2018-12-05T23:58:50.456Z,986.317
